createdAt,value
2023-03-02T00:00:50.520Z,4.00
2023-03-02T00:03:22.835Z,3.77
2023-03-02T00:05:51.830Z,3.78
2023-03-02T00:08:22.553Z,3.75
2023-03-02T00:10:51.500Z,3.74
2023-03-02T00:13:21.399Z,3.60
2023-03-02T00:15:52.787Z,3.45
2023-03-02T00:18:24.403Z,3.64
2023-03-02T00:20:57.072Z,3.74
2023-03-02T00:23:29.630Z,3.93
2023-03-02T00:25:59.672Z,3.92
2023-03-02T00:28:30.056Z,4.10
2023-03-02T00:30:59.559Z,4.08
2023-03-02T00:33:30.273Z,4.04
2023-03-02T00:35:59.604Z,3.93
2023-03-02T00:38:28.915Z,3.89
2023-03-02T00:41:01.867Z,3.85
2023-03-02T00:43:30.464Z,3.76
2023-03-02T00:45:59.348Z,3.73
2023-03-02T00:48:29.896Z,3.67
2023-03-02T00:51:01.910Z,3.61
2023-03-02T00:53:30.372Z,3.75
2023-03-02T00:55:59.646Z,3.65
2023-03-02T00:58:29.088Z,3.66
2023-03-02T01:00:57.745Z,3.71
2023-03-02T01:03:26.313Z,3.80
2023-03-02T01:05:56.852Z,3.80
2023-03-02T01:08:26.392Z,3.68
2023-03-02T01:10:55.074Z,3.60
2023-03-02T01:13:23.656Z,3.46
2023-03-02T01:16:02.287Z,3.36
2023-03-02T01:18:31.148Z,3.10
2023-03-02T01:21:05.483Z,3.41
2023-03-02T01:23:34.073Z,3.52
2023-03-02T01:26:03.106Z,3.64
2023-03-02T01:28:31.561Z,3.70
2023-03-02T01:31:04.935Z,3.79
2023-03-02T01:33:34.817Z,3.81
2023-03-02T01:36:04.857Z,3.89
2023-03-02T01:38:33.522Z,3.72
2023-03-02T01:41:02.006Z,3.54
2023-03-02T01:43:30.956Z,3.65
2023-03-02T01:46:03.080Z,3.58
2023-03-02T01:48:35.486Z,3.62
2023-03-02T01:51:08.732Z,3.58
2023-03-02T01:53:38.971Z,3.50
2023-03-02T01:56:07.863Z,3.50
2023-03-02T01:58:38.510Z,3.59
2023-03-02T02:01:15.900Z,3.51
2023-03-02T02:03:48.244Z,3.44
2023-03-02T02:06:22.777Z,3.48
2023-03-02T02:08:52.361Z,3.61
2023-03-02T02:11:20.359Z,3.42
2023-03-02T02:13:48.482Z,3.57
2023-03-02T02:16:16.424Z,3.57
2023-03-02T02:18:45.534Z,3.65
2023-03-02T02:21:14.593Z,3.45
2023-03-02T02:23:50.966Z,3.54
2023-03-02T02:26:24.675Z,3.50
2023-03-02T02:28:58.874Z,3.45
2023-03-02T02:31:36.182Z,3.25
2023-03-02T02:34:10.780Z,3.07
2023-03-02T02:36:43.079Z,3.16
2023-03-02T02:39:18.973Z,3.19
2023-03-02T02:41:50.978Z,3.29
2023-03-02T02:44:20.212Z,3.28
2023-03-02T02:46:48.118Z,3.42
2023-03-02T02:49:28.847Z,3.36
2023-03-02T02:51:56.781Z,3.37
2023-03-02T02:54:25.320Z,3.53
2023-03-02T02:56:57.034Z,3.55
2023-03-02T02:59:28.966Z,3.58
2023-03-02T03:01:58.157Z,3.48
2023-03-02T03:04:29.289Z,3.45
2023-03-02T03:06:59.771Z,3.45
2023-03-02T03:09:28.307Z,3.34
2023-03-02T03:12:02.777Z,3.45
2023-03-02T03:14:35.188Z,3.47
2023-03-02T03:17:03.886Z,3.51
2023-03-02T03:19:33.396Z,3.50
2023-03-02T03:22:03.106Z,3.42
2023-03-02T03:24:33.840Z,3.40
2023-03-02T03:27:05.672Z,3.34
2023-03-02T03:29:34.723Z,3.30
2023-03-02T03:32:04.219Z,3.23
2023-03-02T03:34:32.898Z,3.33
2023-03-02T03:37:01.918Z,3.17
2023-03-02T03:39:30.453Z,3.18
2023-03-02T03:41:58.579Z,3.35
2023-03-02T03:44:27.817Z,3.17
2023-03-02T03:46:55.764Z,3.23
2023-03-02T03:49:23.803Z,3.37
2023-03-02T03:51:51.796Z,3.42
2023-03-02T03:54:20.170Z,3.46
2023-03-02T03:56:50.179Z,3.52
2023-03-02T03:59:49.427Z,3.51
2023-03-02T04:02:41.671Z,3.48
2023-03-02T04:12:27.341Z,3.53
2023-03-02T04:15:06.947Z,3.59
2023-03-02T04:18:07.860Z,3.44
2023-03-02T04:20:41.474Z,3.02
2023-03-02T04:23:09.382Z,3.20
2023-03-02T04:25:37.893Z,3.27
2023-03-02T04:28:06.420Z,3.31
2023-03-02T04:30:35.751Z,3.52
2023-03-02T04:33:04.225Z,3.64
2023-03-02T04:35:32.408Z,3.64
2023-03-02T04:38:00.346Z,3.55
2023-03-02T04:40:28.687Z,3.50
2023-03-02T04:42:57.080Z,3.44
2023-03-02T04:45:25.391Z,3.57
2023-03-02T04:47:54.926Z,3.56
2023-03-02T04:50:23.538Z,3.31
2023-03-02T04:52:51.790Z,3.28
2023-03-02T04:55:22.511Z,3.50
2023-03-02T04:57:50.827Z,3.49
2023-03-02T05:00:21.044Z,3.32
2023-03-02T05:02:49.322Z,3.25
2023-03-02T05:05:21.967Z,3.23
2023-03-02T05:07:51.674Z,3.01
2023-03-02T05:10:21.705Z,3.12
2023-03-02T05:13:03.652Z,3.32
2023-03-02T05:15:36.250Z,3.12
2023-03-02T05:18:06.826Z,2.94
2023-03-02T05:20:37.183Z,2.84
2023-03-02T05:23:08.636Z,2.82
2023-03-02T05:25:38.399Z,2.81
2023-03-02T05:28:07.195Z,2.92
2023-03-02T05:30:38.068Z,2.86
2023-03-02T05:33:06.666Z,2.94
2023-03-02T05:35:36.880Z,3.19
2023-03-02T05:38:05.250Z,3.32
2023-03-02T05:40:33.730Z,3.41
2023-03-02T05:43:02.398Z,3.40
2023-03-02T05:45:32.851Z,3.27
2023-03-02T05:48:01.048Z,3.10
2023-03-02T05:50:29.836Z,3.16
2023-03-02T05:53:00.253Z,3.33
2023-03-02T05:55:28.267Z,3.35
2023-03-02T05:57:56.662Z,3.49
2023-03-02T06:00:25.243Z,3.43
2023-03-02T06:02:53.225Z,3.36
2023-03-02T06:05:22.797Z,3.38
2023-03-02T06:07:50.786Z,3.55
2023-03-02T06:10:20.596Z,3.66
2023-03-02T06:12:48.599Z,3.52
2023-03-02T06:15:16.551Z,3.18
2023-03-02T06:17:44.689Z,3.10
2023-03-02T06:20:13.984Z,3.13
2023-03-02T06:22:45.183Z,3.18
2023-03-02T06:25:15.532Z,3.32
2023-03-02T06:27:45.564Z,3.21
2023-03-02T06:30:16.364Z,3.15
2023-03-02T06:32:44.502Z,2.84
2023-03-02T06:35:13.343Z,2.81
2023-03-02T06:37:44.081Z,2.68
2023-03-02T06:40:14.004Z,2.79
2023-03-02T06:42:44.236Z,2.95
2023-03-02T06:45:13.000Z,2.91
2023-03-02T06:47:43.632Z,3.05
2023-03-02T06:50:12.820Z,3.15
2023-03-02T06:52:40.737Z,3.09
2023-03-02T06:55:09.794Z,3.02
2023-03-02T06:57:38.269Z,2.92
2023-03-02T07:00:11.609Z,2.98
2023-03-02T07:02:39.574Z,2.91
2023-03-02T07:05:08.688Z,3.13
2023-03-02T07:07:36.979Z,3.36
2023-03-02T07:10:05.390Z,3.54
2023-03-02T07:12:33.508Z,3.27
2023-03-02T07:15:01.574Z,3.31
2023-03-02T07:17:31.115Z,3.07
2023-03-02T07:19:59.208Z,3.02
2023-03-02T07:22:27.134Z,3.25
2023-03-02T07:24:55.458Z,3.29
2023-03-02T07:27:23.521Z,3.29
2023-03-02T07:29:51.800Z,3.38
2023-03-02T07:32:20.006Z,3.41
2023-03-02T07:34:49.437Z,3.32
2023-03-02T07:37:17.353Z,3.35
2023-03-02T07:39:45.398Z,3.35
2023-03-02T07:42:14.131Z,3.37
2023-03-02T07:44:42.380Z,3.32
2023-03-02T07:47:10.314Z,3.40
2023-03-02T07:49:38.516Z,3.48
2023-03-02T07:52:07.902Z,3.72
2023-03-02T07:54:35.820Z,3.78
2023-03-02T07:57:03.930Z,3.82
2023-03-02T07:59:45.103Z,3.85
2023-03-02T08:08:37.495Z,3.64
2023-03-02T08:11:58.496Z,3.62
2023-03-02T08:23:19.286Z,3.59
2023-03-02T08:26:05.504Z,3.93
2023-03-02T08:29:07.567Z,4.01
2023-03-02T08:34:54.914Z,4.24
2023-03-02T08:41:22.810Z,4.19
2023-03-02T08:44:36.196Z,4.62
2023-03-02T08:47:07.727Z,4.33
2023-03-02T08:49:47.979Z,4.45
2023-03-02T08:52:16.404Z,4.19
2023-03-02T08:54:45.113Z,4.07
2023-03-02T08:57:14.720Z,4.08
2023-03-02T08:59:42.711Z,3.73
2023-03-02T09:02:12.484Z,4.11
2023-03-02T09:04:42.039Z,4.27
2023-03-02T09:07:09.884Z,4.48
2023-03-02T09:09:39.271Z,4.55
2023-03-02T09:12:07.547Z,4.63
2023-03-02T09:14:37.169Z,4.77
2023-03-02T09:17:05.817Z,4.73
2023-03-02T09:19:43.266Z,4.74
2023-03-02T09:22:12.930Z,4.72
2023-03-02T09:24:40.893Z,4.44
2023-03-02T09:27:08.791Z,4.45
2023-03-02T09:29:38.472Z,4.68
2023-03-02T09:32:06.707Z,4.75
2023-03-02T09:34:34.767Z,4.70
2023-03-02T09:37:03.530Z,4.81
2023-03-02T09:39:31.682Z,4.64
2023-03-02T09:42:32.096Z,4.69
2023-03-02T09:45:24.723Z,4.74
2023-03-02T09:48:06.483Z,4.92
2023-03-02T09:50:37.749Z,5.12
2023-03-02T09:53:26.382Z,4.76
2023-03-02T09:56:00.516Z,4.41
2023-03-02T09:58:43.847Z,3.92
2023-03-02T10:01:17.202Z,4.26
2023-03-02T10:03:52.735Z,4.70
2023-03-02T10:06:24.799Z,4.84
2023-03-02T10:08:52.779Z,5.10
2023-03-02T10:11:32.500Z,5.10
2023-03-02T10:14:04.818Z,5.33
2023-03-02T10:16:38.561Z,5.52
2023-03-02T10:19:15.082Z,5.67
2023-03-02T10:21:45.477Z,5.78
2023-03-02T10:24:22.503Z,5.74
2023-03-02T10:26:54.226Z,5.20
2023-03-02T10:29:47.961Z,5.21
2023-03-02T10:32:22.432Z,5.50
2023-03-02T10:34:51.776Z,5.52
2023-03-02T10:37:23.052Z,5.61
2023-03-02T10:39:51.275Z,5.65
2023-03-02T10:42:23.281Z,5.34
2023-03-02T10:44:54.906Z,5.29
2023-03-02T10:47:26.622Z,5.28
2023-03-02T10:49:55.848Z,5.32
2023-03-02T10:52:25.718Z,5.29
2023-03-02T10:55:03.723Z,5.12
2023-03-02T10:57:36.922Z,4.92
2023-03-02T11:00:16.484Z,5.02
2023-03-02T11:02:56.717Z,5.15
2023-03-02T11:05:29.929Z,5.15
2023-03-02T11:07:59.886Z,5.44
2023-03-02T11:10:32.011Z,5.66
2023-03-02T11:13:01.352Z,5.72
2023-03-02T11:15:37.083Z,5.55
2023-03-02T11:18:13.836Z,5.46
2023-03-02T11:20:46.401Z,5.34
2023-03-02T11:23:24.707Z,5.38
2023-03-02T11:25:55.559Z,5.41
2023-03-02T11:28:35.472Z,5.58
2023-03-02T11:31:09.139Z,5.61
2023-03-02T11:33:46.560Z,5.70
2023-03-02T11:36:21.557Z,5.58
2023-03-02T11:38:52.481Z,5.70
2023-03-02T11:41:29.924Z,6.05
2023-03-02T11:44:01.387Z,6.21
2023-03-02T11:46:31.948Z,6.25
2023-03-02T11:49:06.679Z,6.10
2023-03-02T11:51:39.093Z,6.19
2023-03-02T11:54:21.116Z,6.28
2023-03-02T11:56:49.376Z,6.26
2023-03-02T11:59:21.304Z,6.37
2023-03-02T12:01:52.625Z,6.08
2023-03-02T12:04:32.445Z,5.93
2023-03-02T12:07:02.091Z,5.98
2023-03-02T12:09:35.058Z,5.99
2023-03-02T12:12:28.046Z,6.22
2023-03-02T12:15:06.136Z,6.19
2023-03-02T12:17:35.530Z,6.44
2023-03-02T12:20:26.366Z,6.54
2023-03-02T12:23:57.108Z,6.72
2023-03-02T12:26:30.937Z,6.39
2023-03-02T12:29:03.115Z,6.02
2023-03-02T12:31:44.298Z,6.03
2023-03-02T12:34:34.835Z,5.77
2023-03-02T12:37:09.302Z,5.46
2023-03-02T12:40:27.637Z,5.74
2023-03-02T12:43:16.066Z,5.84
2023-03-02T12:45:59.694Z,5.65
2023-03-02T12:48:31.804Z,5.91
2023-03-02T12:51:09.537Z,6.20
2023-03-02T12:53:42.675Z,6.29
2023-03-02T12:56:10.984Z,6.57
2023-03-02T12:58:38.859Z,6.78
2023-03-02T13:01:06.907Z,6.93
2023-03-02T13:03:35.008Z,7.03
2023-03-02T13:06:05.243Z,7.03
2023-03-02T13:08:33.922Z,7.05
2023-03-02T13:11:04.226Z,6.98
2023-03-02T13:13:38.674Z,7.13
2023-03-02T13:16:19.278Z,7.36
2023-03-02T13:18:49.925Z,7.15
2023-03-02T13:21:20.273Z,6.96
2023-03-02T13:23:51.923Z,6.78
2023-03-02T13:26:30.063Z,6.92
2023-03-02T13:29:06.883Z,6.84
2023-03-02T13:31:44.597Z,6.99
2023-03-02T13:34:23.499Z,7.05
2023-03-02T13:36:52.307Z,7.03
2023-03-02T13:39:27.762Z,6.70
2023-03-02T13:42:01.314Z,6.34
2023-03-02T13:44:31.799Z,6.58
2023-03-02T13:47:00.312Z,6.72
2023-03-02T13:49:30.462Z,6.84
2023-03-02T13:55:36.483Z,7.33
2023-03-02T13:58:05.874Z,7.27
2023-03-02T14:00:36.570Z,7.01
2023-03-02T14:03:04.341Z,7.08
2023-03-02T14:05:33.915Z,6.52
2023-03-02T14:08:03.023Z,6.68
2023-03-02T14:10:31.050Z,6.69
2023-03-02T14:13:04.367Z,6.82
2023-03-02T14:15:33.768Z,6.99
2023-03-02T14:18:02.356Z,7.18
2023-03-02T14:20:30.338Z,7.06
2023-03-02T14:22:58.685Z,7.07
2023-03-02T14:25:26.787Z,7.09
2023-03-02T14:27:54.931Z,6.91
2023-03-02T14:30:22.866Z,6.75
2023-03-02T14:32:52.217Z,7.10
2023-03-02T14:35:20.162Z,7.24
2023-03-02T14:37:50.369Z,7.31
2023-03-02T14:40:22.495Z,7.18
2023-03-02T14:42:51.874Z,7.27
2023-03-02T14:45:20.138Z,7.30
2023-03-02T14:47:49.108Z,7.01
2023-03-02T14:50:21.009Z,6.86
2023-03-02T14:52:52.073Z,6.97
2023-03-02T14:55:25.761Z,7.23
2023-03-02T14:57:57.108Z,7.35
2023-03-02T15:00:26.485Z,7.42
2023-03-02T15:02:54.741Z,7.45
2023-03-02T15:05:24.258Z,7.38
2023-03-02T15:07:53.639Z,7.19
2023-03-02T15:10:23.333Z,7.14
2023-03-02T15:12:51.449Z,6.99
2023-03-02T15:15:19.965Z,6.98
2023-03-02T15:17:47.828Z,7.09
2023-03-02T15:20:17.575Z,7.11
2023-03-02T15:22:46.769Z,7.18
2023-03-02T15:25:14.493Z,7.21
2023-03-02T15:27:42.768Z,6.98
2023-03-02T15:30:12.370Z,6.96
2023-03-02T15:32:40.237Z,7.10
2023-03-02T15:35:09.219Z,6.89
2023-03-02T15:37:37.023Z,7.07
2023-03-02T15:40:07.723Z,7.06
2023-03-02T15:42:35.552Z,6.75
2023-03-02T15:45:03.454Z,6.75
2023-03-02T15:47:36.336Z,6.71
2023-03-02T15:50:04.925Z,6.66
2023-03-02T15:52:32.896Z,6.54
2023-03-02T15:55:00.713Z,6.50
2023-03-02T15:57:30.271Z,6.41
2023-03-02T15:59:58.196Z,6.33
2023-03-02T16:02:26.103Z,6.15
2023-03-02T16:04:54.228Z,6.17
2023-03-02T16:07:22.162Z,6.28
2023-03-02T16:09:50.022Z,6.33
2023-03-02T16:12:20.408Z,6.18
2023-03-02T16:14:49.565Z,6.29
2023-03-02T16:17:19.140Z,6.23
2023-03-02T16:19:47.145Z,6.43
2023-03-02T16:22:15.182Z,6.29
2023-03-02T16:24:43.166Z,6.42
2023-03-02T16:27:12.231Z,6.27
2023-03-02T16:29:40.346Z,6.04
2023-03-02T16:32:09.917Z,5.94
2023-03-02T16:34:38.286Z,6.00
2023-03-02T16:37:06.212Z,6.08
2023-03-02T16:39:34.274Z,6.22
2023-03-02T16:42:02.434Z,6.25
2023-03-02T16:44:30.619Z,6.27
2023-03-02T16:46:58.697Z,6.27
2023-03-02T16:49:27.974Z,6.44
2023-03-02T16:51:58.920Z,6.35
2023-03-02T16:54:27.178Z,6.04
2023-03-02T16:56:55.510Z,5.84
2023-03-02T16:59:23.920Z,5.98
2023-03-02T17:01:57.025Z,5.99
2023-03-02T17:04:25.088Z,6.18
2023-03-02T17:07:02.263Z,6.28
2023-03-02T17:09:30.562Z,6.17
2023-03-02T17:11:58.829Z,5.94
2023-03-02T17:14:27.113Z,5.96
2023-03-02T17:16:57.508Z,6.20
2023-03-02T17:19:27.331Z,6.37
2023-03-02T17:21:58.740Z,6.53
2023-03-02T17:24:27.413Z,6.61
2023-03-02T17:26:55.693Z,6.66
2023-03-02T17:29:24.327Z,6.79
2023-03-02T17:31:52.469Z,6.90
2023-03-02T17:34:20.718Z,6.92
2023-03-02T17:36:49.159Z,6.86
2023-03-02T17:39:18.597Z,6.81
2023-03-02T17:41:46.537Z,6.47
2023-03-02T17:44:17.223Z,6.43
2023-03-02T17:46:46.571Z,6.47
2023-03-02T17:55:22.481Z,6.42
2023-03-02T17:57:52.369Z,6.18
2023-03-02T18:00:22.565Z,6.25
2023-03-02T18:02:51.337Z,6.27
2023-03-02T18:05:19.493Z,6.28
2023-03-02T18:07:48.163Z,6.29
2023-03-02T18:10:16.561Z,6.38
2023-03-02T18:12:46.761Z,6.36
2023-03-02T18:15:16.324Z,6.47
2023-03-02T18:17:44.429Z,6.46
2023-03-02T18:20:14.065Z,6.51
2023-03-02T18:22:42.148Z,6.59
2023-03-02T18:25:15.141Z,6.62
2023-03-02T18:27:43.675Z,6.57
2023-03-02T18:30:13.577Z,6.58
2023-03-02T18:32:43.372Z,6.57
2023-03-02T18:35:12.242Z,6.61
2023-03-02T18:37:47.054Z,6.70
2023-03-02T18:40:22.053Z,6.68
2023-03-02T18:42:51.292Z,6.76
2023-03-02T18:45:28.052Z,6.75
2023-03-02T18:47:59.671Z,6.73
2023-03-02T18:50:28.924Z,6.79
2023-03-02T18:52:57.491Z,6.85
2023-03-02T18:55:26.706Z,6.92
2023-03-02T18:57:58.164Z,7.01
2023-03-02T19:00:29.310Z,7.01
2023-03-02T19:02:59.617Z,6.88
2023-03-02T19:05:29.794Z,6.64
2023-03-02T19:08:00.374Z,6.50
2023-03-02T19:10:28.260Z,6.29
2023-03-02T19:12:56.118Z,6.47
2023-03-02T19:15:25.117Z,6.39
2023-03-02T19:17:54.720Z,6.55
2023-03-02T19:20:27.213Z,6.62
2023-03-02T19:22:55.737Z,6.61
2023-03-02T19:25:24.473Z,6.68
2023-03-02T19:27:52.792Z,6.58
2023-03-02T19:30:24.006Z,6.69
2023-03-02T19:32:54.269Z,6.56
2023-03-02T19:35:25.654Z,6.52
2023-03-02T19:37:58.295Z,6.44
2023-03-02T19:40:29.477Z,6.38
2023-03-02T19:42:58.381Z,6.33
2023-03-02T19:45:29.113Z,6.28
2023-03-02T19:47:57.964Z,6.24
2023-03-02T19:50:28.777Z,6.20
2023-03-02T19:52:56.987Z,6.21
2023-03-02T19:55:25.698Z,6.18
2023-03-02T19:58:00.090Z,6.18
2023-03-02T20:00:31.763Z,6.10
2023-03-02T20:03:00.926Z,6.01
2023-03-02T20:05:30.641Z,5.97
2023-03-02T20:07:58.974Z,5.94
2023-03-02T20:10:33.028Z,5.93
2023-03-02T20:13:01.872Z,5.86
2023-03-02T20:15:31.990Z,5.73
2023-03-02T20:18:02.604Z,5.63
2023-03-02T20:20:33.151Z,5.54
2023-03-02T20:23:01.197Z,5.47
2023-03-02T20:25:32.636Z,5.44
2023-03-02T20:28:01.108Z,5.40
2023-03-02T20:30:32.686Z,5.38
2023-03-02T20:33:01.187Z,5.34
2023-03-02T20:35:33.425Z,5.40
2023-03-02T20:38:05.421Z,5.31
2023-03-02T20:40:35.487Z,5.33
2023-03-02T20:43:03.612Z,5.35
2023-03-02T20:45:31.740Z,5.42
2023-03-02T20:48:00.126Z,5.42
2023-03-02T20:50:31.937Z,5.39
2023-03-02T20:53:02.042Z,5.47
2023-03-02T20:55:30.548Z,5.47
2023-03-02T20:58:00.038Z,5.47
2023-03-02T21:00:49.020Z,5.53
2023-03-02T21:03:26.614Z,5.55
2023-03-02T21:05:56.508Z,5.60
2023-03-02T21:08:26.108Z,5.57
2023-03-02T21:10:54.077Z,5.45
2023-03-02T21:13:25.348Z,5.44
2023-03-02T21:15:53.453Z,5.38
2023-03-02T21:18:21.995Z,5.39
2023-03-02T21:20:49.921Z,5.36
2023-03-02T21:23:29.174Z,5.31
2023-03-02T21:25:57.397Z,5.23
2023-03-02T21:28:25.426Z,5.21
2023-03-02T21:30:53.588Z,5.18
2023-03-02T21:33:21.601Z,5.19
2023-03-02T21:35:49.470Z,5.17
2023-03-02T21:38:17.209Z,5.14
2023-03-02T21:40:46.883Z,5.11
2023-03-02T21:43:17.410Z,5.13
2023-03-02T21:45:45.594Z,5.11
2023-03-02T21:48:15.029Z,5.07
2023-03-02T21:50:45.791Z,5.04
2023-03-02T21:53:13.765Z,4.98
2023-03-02T21:55:42.506Z,4.94
2023-03-02T21:58:12.393Z,4.92
2023-03-02T22:00:41.658Z,4.89
2023-03-02T22:03:09.977Z,4.87
2023-03-02T22:05:39.212Z,4.87
2023-03-02T22:08:07.701Z,4.84
2023-03-02T22:10:41.224Z,4.84
2023-03-02T22:13:20.512Z,4.90
2023-03-02T22:15:49.919Z,4.86
2023-03-02T22:18:20.718Z,4.81
2023-03-02T22:20:51.527Z,4.80
2023-03-02T22:23:21.862Z,4.80
2023-03-02T22:25:52.263Z,4.74
2023-03-02T22:28:23.506Z,4.76
2023-03-02T22:30:52.619Z,4.77
2023-03-02T22:33:23.086Z,4.71
2023-03-02T22:35:53.747Z,4.64
2023-03-02T22:38:25.841Z,4.67
2023-03-02T22:40:55.120Z,4.66
2023-03-02T22:43:27.102Z,4.62
2023-03-02T22:46:00.169Z,4.56
2023-03-02T22:48:29.405Z,4.52
2023-03-02T22:50:57.238Z,4.50
2023-03-02T22:53:28.770Z,4.52
2023-03-02T22:55:58.823Z,4.47
2023-03-02T22:58:44.315Z,4.47
2023-03-02T23:01:21.493Z,4.41
2023-03-02T23:03:51.711Z,4.40
2023-03-02T23:06:29.010Z,4.47
2023-03-02T23:09:01.345Z,4.42
2023-03-02T23:11:32.768Z,4.24
2023-03-02T23:14:03.579Z,4.26
2023-03-02T23:16:37.086Z,4.24
2023-03-02T23:19:06.080Z,4.22
2023-03-02T23:21:39.166Z,4.22
2023-03-02T23:24:08.549Z,4.25
2023-03-02T23:26:37.238Z,4.30
2023-03-02T23:29:07.005Z,4.31
2023-03-02T23:31:35.239Z,4.32
2023-03-02T23:34:03.517Z,4.30
2023-03-02T23:36:32.379Z,4.34
2023-03-02T23:39:00.626Z,4.34
2023-03-02T23:41:28.864Z,4.23
2023-03-02T23:43:56.880Z,4.24
2023-03-02T23:46:26.583Z,4.31
2023-03-02T23:48:56.146Z,4.28
2023-03-02T23:51:25.449Z,4.30
2023-03-02T23:53:53.806Z,4.32
2023-03-02T23:56:21.969Z,4.29
2023-03-02T23:58:49.974Z,4.43
